Flight Track Log - Related Links

Times and Time Zones

All times are in EDT time to prevent confusion due to time zone crossing. See the EJA929 flight status page for this flight to view local times or setup timezone preferences in your user account.

Time Position Orientation Groundspeed Altitude Reporting Facility
EDT Latitude Longitude Course Direction KTS MPH feet Rate Location/Type
Wed 11:25:46 AM 37.6667 -97.4158 339° North 160 184 2,000  Level Kansas City Center
Wed 11:26:28 AM 37.7039 -97.4100 North 204 235 4,100 2,308 Climbing Kansas City Center
Wed 11:27:56 AM 37.7933 -97.4250 352° North 251 289 7,000 1,933 Climbing Kansas City Center
Wed 11:28:57 AM 37.8828 -97.4403 352° North 271 312 8,900 1,887 Climbing Kansas City Center
Wed 11:30:00 AM 37.9586 -97.4528 353° North 275 316 10,900 1,680 Climbing Kansas City Center
Wed 11:31:00 AM 38.7077 -97.9618 339° North  Level Estimated
Wed 11:31:02 AM 38.0472 -97.4681 352° North 322 371 12,400  Level Kansas City Center
Wed 11:32:03 AM 38.1494 -97.4856 352° North 331 381 14,500 1,694 Climbing Kansas City Center
Wed 11:33:06 AM 38.2367 -97.5017 352° North 350 403 15,900 1,210 Climbing Kansas City Center
Wed 11:34:07 AM 38.3506 -97.5208 352° North 355 409 17,000 541 Climbing Kansas City Center
Wed 11:35:08 AM 38.4608 -97.5397 352° North 393 452 17,000 672 Level Kansas City Center
Wed 11:36:12 AM 38.5717 -97.5597 352° North 402 463 18,400 1,536 Climbing Kansas City Center
Wed 11:37:13 AM 38.6789 -97.5775 353° North 392 451 20,200 1,776 Climbing Kansas City Center
Wed 11:38:17 AM 38.7939 -97.6003 351° North 383 441 22,100 1,742 Climbing Kansas City Center
Wed 11:39:17 AM 38.8939 -97.6169 353° North 379 436 23,800 1,790 Climbing Kansas City Center
Wed 11:40:21 AM 39.0092 -97.6444 349° North 374 430 25,800 1,548 Climbing Kansas City Center
Wed 11:41:21 AM 39.1100 -97.6733 347° North 385 443 27,000 1,339 Climbing Kansas City Center
Wed 11:42:22 AM 39.2317 -97.7086 347° North 398 458 28,500 1,344 Climbing Kansas City Center
Wed 11:43:26 AM 39.3436 -97.7408 347° North 405 466 29,800 1,248 Climbing Kansas City Center
Wed 11:44:27 AM 39.4572 -97.7736 347° North 418 481 31,100 1,248 Climbing Kansas City Center
Wed 11:45:31 AM 39.5728 -97.8089 347° North 425 489 32,400 1,286 Climbing Kansas City Center
Wed 11:46:33 AM 39.6911 -97.8406 348° North 422 486 33,800 1,645 Climbing Minneapolis Center
Wed 11:47:35 AM 39.8317 -97.8839 347° North 427 491 35,800 1,839 Climbing Minneapolis Center
Wed 11:48:37 AM 39.9456 -97.9181 347° North 427 491 37,600 1,065 Climbing Minneapolis Center
Wed 11:49:39 AM 40.0589 -97.9514 347° North 423 487 38,000 194 Climbing Minneapolis Center
Wed 11:50:41 AM 40.1767 -97.9842 348° North 424 488 38,000 484 Level Minneapolis Center
Wed 11:51:43 AM 40.3003 -98.0203 347° North 434 499 39,000 960 Climbing Minneapolis Center
Wed 11:52:46 AM 40.4200 -98.0578 347° North 439 505 40,000 480 Climbing Minneapolis Center
Wed 11:53:48 AM 40.5367 -98.0925 347° North 438 504 40,000  Level Minneapolis Center
Wed 11:54:50 AM 40.6722 -98.1322 347° North 429 494 40,000  Level Minneapolis Center
Wed 11:55:52 AM 40.7861 -98.1667 347° North 424 488 40,000  Level Minneapolis Center
Wed 11:56:53 AM 40.8783 -98.1933 348° North 423 487 40,000  Level Minneapolis Center
Wed 11:57:56 AM 41.0167 -98.2353 347° North 423 487 40,000  Level Minneapolis Center
Wed 11:58:58 AM 41.1325 -98.2711 347° North 424 488 40,000  Level Minneapolis Center
Wed 12:00:00 PM 41.2486 -98.3072 347° North 424 488 40,000  Level Minneapolis Center
Wed 12:01:02 PM 41.3878 -98.3486 347° North 426 490 40,000  Level Minneapolis Center
Wed 12:02:04 PM 41.5019 -98.3853 346° North 423 487 40,000  Level Minneapolis Center
Wed 12:03:06 PM 41.6167 -98.4197 347° North 422 486 40,000  Level Minneapolis Center
Wed 12:04:08 PM 41.7319 -98.4558 347° North 423 487 40,000  Level Minneapolis Center
Wed 12:05:10 PM 41.8483 -98.4922 347° North 427 491 40,000  Level Minneapolis Center
Wed 12:06:24 PM 41.9639 -98.5272 347° North 425 489 40,000  Level Minneapolis Center
Wed 12:07:27 PM 42.1253 -98.5778 347° North 425 489 40,000  Level Minneapolis Center
Wed 12:08:29 PM 42.2156 -98.6061 347° North 418 481 40,000  Level Minneapolis Center
Wed 12:09:31 PM 42.3528 -98.6489 347° North 420 483 40,000  Level Minneapolis Center
Wed 12:10:33 PM 42.4656 -98.6889 345° North 418 481 40,000  Level Minneapolis Center
Wed 12:11:35 PM 42.5533 -98.7778 323° Northwest 396 456 40,000  Level Minneapolis Center
Wed 12:12:37 PM 42.6403 -98.8742 321° Northwest 393 452 40,000  Level Minneapolis Center
Wed 12:13:51 PM 42.7353 -98.9792 321° Northwest 390 449 40,000  Level Minneapolis Center
Wed 12:14:54 PM 42.8369 -99.0928 321° Northwest 393 452 40,000  Level Minneapolis Center
Wed 12:15:56 PM 42.9219 -99.1861 321° Northwest 392 451 40,000  Level Minneapolis Center
Wed 12:16:58 PM 43.0061 -99.2822 320° Northwest 395 455 40,000  Level Minneapolis Center
Wed 12:18:00 PM 43.0742 -99.3583 321° Northwest 394 453 40,000  Level Minneapolis Center
Wed 12:19:02 PM 43.1933 -99.4931 321° Northwest 398 458 40,000  Level Minneapolis Center
Wed 12:20:04 PM 43.2792 -99.5889 321° Northwest 399 459 40,000  Level Minneapolis Center
Wed 12:21:06 PM 43.3644 -99.6861 320° Northwest 399 459 40,000  Level Minneapolis Center
Wed 12:22:08 PM 43.4497 -99.7831 320° Northwest 398 458 40,000  Level Minneapolis Center
Wed 12:23:10 PM 43.5367 -99.8833 320° Northwest 403 464 40,000  Level Minneapolis Center
Wed 12:24:13 PM 43.6247 -99.9833 321° Northwest 408 470 40,000  Level Minneapolis Center
Wed 12:25:15 PM 43.7311 -100.1064 320° Northwest 413 475 40,000  Level Minneapolis Center
Wed 12:26:17 PM 43.8197 -100.2097 320° Northwest 415 478 40,000  Level Minneapolis Center
Wed 12:27:19 PM 43.9078 -100.3122 320° Northwest 414 476 40,000  Level Minneapolis Center
Wed 12:28:20 PM 43.9786 -100.3947 320° Northwest 414 476 40,000  Level Minneapolis Center
Wed 12:29:23 PM 44.0833 -100.5186 320° Northwest 412 474 40,000  Level Minneapolis Center
Wed 12:30:25 PM 44.1711 -100.6214 320° Northwest 411 473 40,000  Level Minneapolis Center
Wed 12:31:39 PM 44.2586 -100.7264 319° Northwest 413 475 40,000  Level Minneapolis Center
Wed 12:32:42 PM 44.3939 -100.8525 326° Northwest 420 483 40,000  Level Minneapolis Center
Wed 12:33:44 PM 44.5008 -100.9258 334° Northwest 425 489 40,000  Level Minneapolis Center
Wed 12:34:46 PM 44.6072 -100.9992 334° Northwest 425 489 40,000  Level Minneapolis Center
Wed 12:35:48 PM 44.7133 -101.0722 334° Northwest 425 489 40,000  Level Minneapolis Center
Wed 12:36:50 PM 44.8194 -101.1456 334° Northwest 424 488 40,000  Level Minneapolis Center
Wed 12:37:52 PM 44.9256 -101.2206 333° Northwest 424 488 40,000  Level Minneapolis Center
Wed 12:38:54 PM 45.0333 -101.2953 334° Northwest 426 490 40,000  Level Minneapolis Center
Wed 12:39:56 PM 45.1686 -101.3883 334° Northwest 441 507 40,000  Level Minneapolis Center
Wed 12:40:58 PM 45.2786 -101.4628 335° Northwest 439 505 40,000  Level Minneapolis Center
Wed 12:42:00 PM 45.3881 -101.5408 333° Northwest 439 505 40,000  Level Minneapolis Center
Wed 12:43:02 PM 45.4975 -101.6197 333° Northwest 439 505 40,000  Level Minneapolis Center
Wed 12:44:04 PM 45.6064 -101.6975 333° Northwest 439 505 40,000  Level Minneapolis Center
Wed 12:45:07 PM 45.7164 -101.7750 334° Northwest 440 506 40,000  Level Minneapolis Center
Wed 12:46:09 PM 45.8475 -101.8689 333° Northwest 439 505 40,000  Level Minneapolis Center
Wed 12:47:11 PM 45.9567 -101.9483 333° Northwest 439 505 40,000  Level Minneapolis Center
Wed 12:48:13 PM 46.0647 -102.0261 333° Northwest 436 502 40,000  Level Minneapolis Center
Wed 12:49:15 PM 46.1664 -102.0986 334° Northwest 435 501 40,000  Level Minneapolis Center
Wed 12:50:17 PM 46.2742 -102.1775 333° Northwest 435 501 40,000  Level Minneapolis Center
Wed 12:51:19 PM 46.4031 -102.2703 334° Northwest 433 498 40,000  Level Minneapolis Center
Wed 12:52:21 PM 46.5083 -102.3511 332° Northwest 432 497 40,000 -290 Level Minneapolis Center
Wed 12:53:23 PM 46.6167 -102.4306 333° Northwest 435 501 39,400 -706 Descending Minneapolis Center
Wed 12:54:37 PM 46.7272 -102.5139 333° Northwest 444 511 38,400 -1,664 Descending Minneapolis Center
Wed 12:55:40 PM 46.8525 -102.6117 332° Northwest 432 497 35,600 -3,216 Descending Minneapolis Center
Wed 12:56:42 PM 46.9564 -102.6867 334° Northwest 419 482 31,700 -4,210 Descending Minneapolis Center
Wed 12:57:44 PM 47.0853 -102.7933 331° Northwest 440 506 26,900 -4,258 Descending Minneapolis Center
Wed 12:58:46 PM 47.1953 -102.8778 332° Northwest 446 513 22,900 -3,871 Descending Minneapolis Center
Wed 12:59:48 PM 47.3003 -102.9592 332° Northwest 436 502 18,900 -3,435 Descending Minneapolis Center
Wed 01:00:50 PM 47.3989 -103.0353 332° Northwest 422 486 15,800 -3,194 Descending Minneapolis Center
Wed 01:01:52 PM 47.4878 -103.1047 332° Northwest 392 451 12,300 -2,806 Descending Minneapolis Center
Wed 01:02:54 PM 47.5744 -103.1722 332° Northwest 371 427 10,000 -1,694 Descending Minneapolis Center
Wed 01:03:56 PM 47.6517 -103.2339 332° Northwest 294 338 8,800 -1,597 Descending Minneapolis Center
Wed 01:04:58 PM 47.7153 -103.2822 333° Northwest 270 311 6,700 -1,824 Descending Minneapolis Center
Wed 01:06:01 PM 47.7797 -103.3308 333° Northwest 264 304 5,000 -1,619 Descending Minneapolis Center

Login

Don't have an account? Register now (free) for customized features, flight alerts, and more!